Time;durP1;ratioP1;P1;durP2;ratioP2;P2;SDS_P1;SDS_P2;PMS_P1;PMS_P2;Temp;Humidity;BMP_temperature;BMP_pressure;BME280_temperature;BME280_humidity;BME280_pressure;Samples;Min_cycle;Max_cycle;Signal;HPM_P1;HPM_P2
2024/01/02 00:01:03;;;;;;;17.90;8.65;;;2.80;99.90;;;;;;4910010;29;20125;-78
2024/01/02 00:03:32;;;;;;;16.67;7.70;;;2.50;99.90;;;;;;4902575;29;20087;-77
2024/01/02 00:06:01;;;;;;;14.80;7.15;;;2.90;99.90;;;;;;4888762;29;20063;-77
2024/01/02 00:08:30;;;;;;;16.52;7.72;;;2.40;99.90;;;;;;4907757;29;20068;-77
2024/01/02 00:11:01;;;;;;;16.20;7.35;;;2.80;99.90;;;;;;4901959;29;20040;-77
2024/01/02 00:13:30;;;;;;;17.80;8.02;;;2.80;99.90;;;;;;4892842;29;20814;-77
2024/01/02 00:15:58;;;;;;;15.63;7.97;;;3.00;99.90;;;;;;4888993;29;20056;-76
2024/01/02 00:18:29;;;;;;;16.50;8.57;;;2.80;99.90;;;;;;4888369;29;20052;-77
2024/01/02 00:20:58;;;;;;;21.25;9.20;;;2.90;99.90;;;;;;4889228;29;20200;-77
2024/01/02 00:23:31;;;;;;;17.80;9.18;;;2.60;99.90;;;;;;4889092;29;20053;-78
2024/01/02 00:26:00;;;;;;;16.63;7.93;;;3.40;99.90;;;;;;4906905;29;20064;-78
2024/01/02 00:28:30;;;;;;;17.52;8.63;;;2.70;99.90;;;;;;4890803;29;20053;-77
2024/01/02 00:30:59;;;;;;;16.92;7.93;;;1.60;99.90;;;;;;4903552;29;20135;-77
2024/01/02 00:33:29;;;;;;;14.90;7.72;;;3.20;99.90;;;;;;4889315;29;20649;-77
2024/01/02 00:35:58;;;;;;;15.73;6.85;;;2.70;99.90;;;;;;4907465;29;22048;-77
2024/01/02 00:38:28;;;;;;;20.52;8.88;;;1.40;99.90;;;;;;4901555;29;20087;-77
2024/01/02 00:40:57;;;;;;;16.27;8.20;;;2.70;99.90;;;;;;4888624;29;20055;-77
2024/01/02 00:43:26;;;;;;;18.30;7.72;;;2.70;99.90;;;;;;4895718;29;20147;-77
2024/01/02 00:45:56;;;;;;;18.45;9.00;;;2.70;99.90;;;;;;4903097;29;20040;-77
2024/01/02 00:48:25;;;;;;;22.30;8.65;;;2.70;99.90;;;;;;4888592;29;20154;-77
2024/01/02 00:50:55;;;;;;;18.73;8.15;;;3.20;99.90;;;;;;4895719;29;20088;-77
2024/01/02 00:53:24;;;;;;;17.40;7.70;;;2.60;99.90;;;;;;4902361;29;20045;-77
2024/01/02 00:55:53;;;;;;;19.35;8.52;;;2.60;99.90;;;;;;4909340;29;20063;-77
2024/01/02 00:58:24;;;;;;;22.00;8.80;;;2.60;99.90;;;;;;4890231;29;20089;-77
2024/01/02 01:00:54;;;;;;;17.60;7.68;;;2.50;99.90;;;;;;4899788;29;20048;-77
2024/01/02 01:03:23;;;;;;;18.10;7.43;;;2.80;99.90;;;;;;4907059;29;20037;-77
2024/01/02 01:05:51;;;;;;;18.05;8.15;;;2.50;99.90;;;;;;4896857;29;20049;-78
2024/01/02 01:08:22;;;;;;;15.15;6.80;;;2.50;99.90;;;;;;4907971;29;20089;-77
2024/01/02 01:10:51;;;;;;;16.40;7.95;;;2.50;99.90;;;;;;4911017;29;20056;-78
2024/01/02 01:13:20;;;;;;;20.88;9.77;;;2.20;99.90;;;;;;4891300;29;20069;-77
2024/01/02 01:15:49;;;;;;;21.05;9.65;;;2.50;99.90;;;;;;4892211;29;20119;-77
2024/01/02 01:18:19;;;;;;;20.20;10.85;;;3.20;99.90;;;;;;4892720;29;20063;-78
2024/01/02 01:20:49;;;;;;;22.73;9.00;;;2.40;99.90;;;;;;4891711;29;20100;-77
2024/01/02 01:23:18;;;;;;;25.70;11.82;;;2.60;99.90;;;;;;4891967;29;20059;-77
2024/01/02 01:25:48;;;;;;;20.38;9.98;;;2.40;99.90;;;;;;4891067;29;20054;-76
2024/01/02 01:28:17;;;;;;;20.70;8.80;;;3.10;99.90;;;;;;4901729;29;20057;-77
2024/01/02 01:30:48;;;;;;;20.58;8.98;;;1.90;99.90;;;;;;4906472;29;22338;-78
2024/01/02 01:33:17;;;;;;;18.75;8.63;;;2.30;99.90;;;;;;4891090;29;20079;-78
2024/01/02 01:35:46;;;;;;;18.52;8.55;;;2.30;99.90;;;;;;4907287;29;20076;-78
2024/01/02 01:38:14;;;;;;;17.88;8.27;;;2.50;99.90;;;;;;4891398;29;20122;-77
2024/01/02 01:40:43;;;;;;;16.70;8.18;;;3.00;99.90;;;;;;4898860;29;20120;-78
2024/01/02 01:43:14;;;;;;;19.30;8.18;;;2.20;99.90;;;;;;4910880;29;20055;-77
2024/01/02 01:45:44;;;;;;;19.58;8.15;;;2.20;99.90;;;;;;4891086;29;20065;-76
2024/01/02 01:48:13;;;;;;;16.75;7.60;;;2.10;99.90;;;;;;4892220;29;20412;-77
2024/01/02 01:50:49;;;;;;;18.35;7.55;;;2.10;99.90;;;;;;4893592;29;20116;-77
2024/01/02 01:53:19;;;;;;;14.73;7.40;;;2.10;99.90;;;;;;4891582;29;20052;-77
2024/01/02 01:55:48;;;;;;;19.45;8.20;;;2.10;99.90;;;;;;4899208;29;20063;-77
2024/01/02 01:58:19;;;;;;;18.65;8.45;;;2.20;99.90;;;;;;4905561;29;20040;-78
2024/01/02 02:00:48;;;;;;;18.10;8.07;;;2.30;99.90;;;;;;4892212;29;20040;-77
2024/01/02 02:03:18;;;;;;;16.10;7.45;;;1.90;99.90;;;;;;4899298;29;20606;-77
2024/01/02 02:05:47;;;;;;;13.48;6.32;;;1.30;99.90;;;;;;4889627;29;20115;-77
2024/01/02 02:08:16;;;;;;;19.58;7.03;;;2.10;99.90;;;;;;4904430;29;20064;-77
2024/01/02 02:10:45;;;;;;;16.02;7.15;;;1.80;99.90;;;;;;4904745;29;20053;-77
2024/01/02 02:13:14;;;;;;;18.10;7.53;;;2.00;99.90;;;;;;4910126;29;20049;-77
2024/01/02 02:15:48;;;;;;;19.10;6.93;;;2.10;99.90;;;;;;4899789;29;20802;-77
2024/01/02 02:18:17;;;;;;;18.40;7.18;;;1.30;99.90;;;;;;4896419;29;20047;-78
2024/01/02 02:20:46;;;;;;;17.52;7.35;;;3.50;99.90;;;;;;4900732;29;20099;-78
2024/01/02 02:23:17;;;;;;;16.45;7.20;;;1.10;99.90;;;;;;4911152;29;20072;-78
2024/01/02 02:25:46;;;;;;;17.27;6.97;;;2.00;99.90;;;;;;4888039;29;20056;-77
2024/01/02 02:28:15;;;;;;;18.98;7.28;;;2.00;99.90;;;;;;4897897;29;20495;-78
2024/01/02 02:30:45;;;;;;;16.10;6.07;;;2.00;99.90;;;;;;4897620;29;20055;-78
2024/01/02 02:33:14;;;;;;;20.63;7.20;;;0.80;99.90;;;;;;4904833;29;20060;-78
2024/01/02 02:35:43;;;;;;;15.27;6.78;;;2.00;99.90;;;;;;4907133;29;20060;-77
2024/01/02 02:38:12;;;;;;;13.52;6.47;;;1.90;99.90;;;;;;4902874;29;20141;-78
2024/01/02 02:40:42;;;;;;;20.90;8.55;;;2.00;99.90;;;;;;4888672;29;20049;-77
2024/01/02 02:43:11;;;;;;;18.60;7.93;;;1.30;99.90;;;;;;4897519;29;20041;-77
2024/01/02 02:45:39;;;;;;;19.55;8.55;;;2.10;99.90;;;;;;4888385;29;20887;-78
2024/01/02 02:48:08;;;;;;;21.48;7.97;;;1.90;99.90;;;;;;4887975;29;20123;-78
2024/01/02 02:50:38;;;;;;;21.00;8.88;;;1.80;99.90;;;;;;4918753;29;20048;-78
2024/01/02 02:53:07;;;;;;;19.33;8.13;;;2.00;99.90;;;;;;4897843;29;20041;-77
2024/01/02 02:55:36;;;;;;;19.67;7.25;;;1.90;99.90;;;;;;4890007;29;20112;-78
2024/01/02 02:58:07;;;;;;;17.88;7.22;;;1.90;99.90;;;;;;4889282;29;20044;-78
2024/01/02 03:00:37;;;;;;;18.92;8.05;;;1.90;99.90;;;;;;4887739;29;21899;-78
2024/01/02 03:03:06;;;;;;;19.80;7.28;;;1.90;99.90;;;;;;4888273;29;20093;-77
2024/01/02 03:05:36;;;;;;;20.42;8.13;;;2.20;99.90;;;;;;4888449;29;20713;-78
2024/01/02 03:08:05;;;;;;;19.45;8.60;;;1.80;99.90;;;;;;4903483;29;20116;-78
2024/01/02 03:10:35;;;;;;;19.25;7.40;;;0.40;99.90;;;;;;4896653;29;20067;-78
2024/01/02 03:13:06;;;;;;;21.58;8.00;;;1.80;99.90;;;;;;4887180;29;20063;-78
2024/01/02 03:15:35;;;;;;;17.77;7.40;;;1.90;99.90;;;;;;4886931;29;22091;-78
2024/01/02 03:18:04;;;;;;;16.95;6.40;;;1.80;99.90;;;;;;4903081;29;20072;-77
2024/01/02 03:20:34;;;;;;;16.02;7.30;;;1.80;99.90;;;;;;4894792;29;20051;-78
2024/01/02 03:23:02;;;;;;;17.65;7.95;;;1.80;99.90;;;;;;4886655;29;20068;-78
2024/01/02 03:25:32;;;;;;;20.90;8.40;;;1.70;99.90;;;;;;4889564;29;20055;-77
2024/01/02 03:28:00;;;;;;;19.92;8.02;;;1.70;99.90;;;;;;4891383;29;20124;-77
2024/01/02 03:30:31;;;;;;;19.92;8.18;;;1.70;99.90;;;;;;4890201;29;20076;-77
2024/01/02 03:33:03;;;;;;;19.80;7.53;;;1.70;99.90;;;;;;4889923;29;20068;-77
2024/01/02 03:35:32;;;;;;;18.45;7.57;;;1.70;99.90;;;;;;4889939;29;20054;-79
2024/01/02 03:38:01;;;;;;;19.10;7.43;;;1.70;99.90;;;;;;4899179;29;20054;-77
2024/01/02 03:40:31;;;;;;;16.02;6.88;;;1.60;99.90;;;;;;4911693;29;20040;-77
2024/01/02 03:43:00;;;;;;;16.98;6.88;;;1.40;99.90;;;;;;4903586;29;20132;-78
2024/01/02 03:45:30;;;;;;;17.30;7.57;;;2.30;99.90;;;;;;4889393;29;20040;-78
2024/01/02 03:48:07;;;;;;;14.48;6.43;;;1.60;99.90;;;;;;4886833;29;20063;-78
2024/01/02 03:50:36;;;;;;;16.75;7.22;;;1.50;99.90;;;;;;4888555;29;20101;-77
2024/01/02 03:53:06;;;;;;;16.95;7.60;;;1.50;99.90;;;;;;4889777;29;20093;-78
2024/01/02 03:55:35;;;;;;;16.15;7.07;;;1.50;99.90;;;;;;4887769;29;21981;-78
2024/01/02 03:58:04;;;;;;;14.85;6.47;;;1.60;99.90;;;;;;4902604;29;20082;-78
2024/01/02 04:00:35;;;;;;;16.45;6.30;;;1.40;99.90;;;;;;4903378;29;20036;-77
2024/01/02 04:03:06;;;;;;;15.10;7.18;;;1.60;99.90;;;;;;4890357;29;20036;-77
2024/01/02 04:05:34;;;;;;;18.17;6.72;;;0.60;99.90;;;;;;4889932;29;20151;-77
2024/01/02 04:08:03;;;;;;;13.95;6.15;;;2.60;99.90;;;;;;4887013;29;20182;-77
2024/01/02 04:10:34;;;;;;;17.48;7.40;;;1.00;99.90;;;;;;4889545;29;20159;-78
2024/01/02 04:13:06;;;;;;;15.05;7.40;;;1.40;99.90;;;;;;4887072;29;20068;-77
2024/01/02 04:15:37;;;;;;;19.42;7.63;;;1.50;99.90;;;;;;4888163;29;20040;-78
2024/01/02 04:18:06;;;;;;;14.77;7.35;;;1.40;99.90;;;;;;4915184;29;20076;-78
2024/01/02 04:20:36;;;;;;;16.23;7.97;;;1.40;99.90;;;;;;4888491;29;20065;-78
2024/01/02 04:23:05;;;;;;;16.00;7.57;;;1.60;99.90;;;;;;4914063;29;20147;-78
2024/01/02 04:25:35;;;;;;;19.67;8.50;;;1.40;99.90;;;;;;4890328;29;22173;-78
2024/01/02 04:28:04;;;;;;;34.53;13.13;;;1.40;99.90;;;;;;4886996;29;20053;-78
2024/01/02 04:30:37;;;;;;;36.80;13.35;;;1.30;99.90;;;;;;4889163;29;20076;-77
2024/01/02 04:33:06;;;;;;;60.13;20.60;;;1.30;99.90;;;;;;4892577;29;20032;-78
2024/01/02 04:35:35;;;;;;;72.60;24.10;;;1.30;99.90;;;;;;4892073;29;20052;-78
2024/01/02 04:38:05;;;;;;;65.60;22.55;;;2.50;99.90;;;;;;4892107;29;20063;-77
2024/01/02 04:40:34;;;;;;;68.10;24.88;;;0.60;99.90;;;;;;4891735;29;20550;-77
2024/01/02 04:43:05;;;;;;;62.60;23.67;;;1.50;99.90;;;;;;4907031;29;20095;-78
2024/01/02 04:45:35;;;;;;;68.28;23.30;;;1.30;99.90;;;;;;4900952;29;20035;-77
2024/01/02 04:48:05;;;;;;;58.95;21.50;;;1.10;99.90;;;;;;4906859;29;20054;-78
2024/01/02 04:50:35;;;;;;;67.22;24.17;;;1.20;99.90;;;;;;4903837;29;20032;-78
2024/01/02 04:53:05;;;;;;;53.10;20.95;;;1.20;99.90;;;;;;4891476;29;20053;-77
2024/01/02 04:55:34;;;;;;;49.13;19.58;;;1.20;99.90;;;;;;4906497;29;20059;-77
2024/01/02 04:58:04;;;;;;;40.25;14.35;;;1.20;99.90;;;;;;4896957;29;20132;-78
2024/01/02 05:00:35;;;;;;;38.92;13.18;;;1.50;99.90;;;;;;4906559;29;20045;-78
2024/01/02 05:03:05;;;;;;;35.53;14.38;;;1.20;99.90;;;;;;4897701;29;20071;-78
2024/01/02 05:05:34;;;;;;;30.63;13.85;;;1.10;99.90;;;;;;4900069;29;20060;-78
2024/01/02 05:08:03;;;;;;;25.80;11.35;;;1.10;99.90;;;;;;4899000;29;20112;-78
2024/01/02 05:10:32;;;;;;;28.08;12.32;;;1.20;99.90;;;;;;4889775;29;20048;-78
2024/01/02 05:13:02;;;;;;;22.65;10.65;;;1.10;99.90;;;;;;4891000;29;22106;-78
2024/01/02 05:15:30;;;;;;;21.92;9.70;;;2.40;99.90;;;;;;4914190;29;20048;-78
2024/01/02 05:18:01;;;;;;;17.70;8.02;;;1.50;99.90;;;;;;4894717;29;20063;-77
2024/01/02 05:20:32;;;;;;;15.43;6.80;;;1.10;99.90;;;;;;4892337;29;20085;-78
2024/01/02 05:23:03;;;;;;;18.95;7.50;;;2.10;99.90;;;;;;4892386;29;20055;-78
2024/01/02 05:25:44;;;;;;;15.52;6.88;;;1.30;99.90;;;;;;4891341;29;20056;-78
2024/01/02 05:28:13;;;;;;;14.82;6.63;;;1.10;99.90;;;;;;4891486;29;20060;-78
2024/01/02 05:30:40;;;;;;;14.05;6.85;;;1.20;99.90;;;;;;4892391;29;20109;-78
2024/01/02 05:33:11;;;;;;;13.57;7.15;;;1.20;99.90;;;;;;4907425;29;20136;-78
2024/01/02 05:35:40;;;;;;;13.60;6.38;;;1.70;99.90;;;;;;4891890;29;20048;-78
2024/01/02 05:38:09;;;;;;;15.32;6.53;;;1.10;99.90;;;;;;4908249;29;20056;-78
2024/01/02 05:40:38;;;;;;;14.95;6.57;;;1.00;99.90;;;;;;4907692;29;20127;-78
2024/01/02 05:43:07;;;;;;;20.20;7.35;;;1.10;99.90;;;;;;4894460;29;20038;-78
2024/01/02 05:45:36;;;;;;;23.23;8.43;;;1.60;99.90;;;;;;4892591;29;20057;-78
2024/01/02 05:48:06;;;;;;;21.75;7.93;;;1.10;99.90;;;;;;4890093;29;20076;-78
2024/01/02 05:50:36;;;;;;;19.40;7.13;;;1.10;99.90;;;;;;4897958;29;20048;-77
2024/01/02 05:53:09;;;;;;;23.67;8.75;;;1.10;99.90;;;;;;4900054;29;20052;-78
2024/01/02 05:55:38;;;;;;;24.98;9.77;;;1.70;99.90;;;;;;4897388;29;20139;-78
2024/01/02 05:58:07;;;;;;;28.48;10.23;;;1.60;99.90;;;;;;4893822;29;20046;-78
2024/01/02 06:00:36;;;;;;;25.60;9.52;;;1.10;99.90;;;;;;4903756;29;20054;-78
2024/01/02 06:03:05;;;;;;;27.98;10.27;;;1.10;99.90;;;;;;4891594;29;20059;-78
2024/01/02 06:05:35;;;;;;;31.23;11.40;;;1.70;99.90;;;;;;4906688;29;20040;-78
2024/01/02 06:08:05;;;;;;;30.67;10.60;;;1.10;99.90;;;;;;4889534;29;20119;-78
2024/01/02 06:14:47;;;;;;;27.38;10.95;;;1.00;99.90;;;;;;4876441;29;20048;-79
2024/01/02 06:19:18;;;;;;;25.27;10.55;;;1.10;99.90;;;;;;4827267;29;20073;-79
2024/01/02 07:01:10;;;;;;;30.25;10.52;;;0.70;99.90;;;;;;5126396;27;20404;-78
2024/01/02 07:03:38;;;;;;;28.98;10.95;;;1.00;99.90;;;;;;5120688;27;20055;-78
2024/01/02 07:06:07;;;;;;;31.92;11.52;;;1.00;99.90;;;;;;5121388;27;20051;-78
2024/01/02 07:08:36;;;;;;;33.25;12.27;;;1.10;99.90;;;;;;5118755;27;20056;-79
2024/01/02 07:11:05;;;;;;;31.58;12.45;;;1.00;99.90;;;;;;5102622;28;20051;-79
2024/01/02 07:13:34;;;;;;;31.88;12.30;;;1.10;99.90;;;;;;5101963;28;22224;-79
2024/01/02 07:16:03;;;;;;;29.58;11.75;;;1.10;99.90;;;;;;5099199;28;20139;-79
2024/01/02 07:18:33;;;;;;;33.45;12.00;;;1.10;99.90;;;;;;5101704;28;20056;-78
2024/01/02 07:21:02;;;;;;;42.45;14.07;;;1.10;99.90;;;;;;5118573;27;20135;-79
2024/01/02 07:23:31;;;;;;;41.28;13.63;;;1.10;99.90;;;;;;5105258;27;20120;-78
2024/01/02 07:25:59;;;;;;;41.38;14.95;;;1.10;99.90;;;;;;5107219;28;20048;-78
2024/01/02 07:28:29;;;;;;;50.38;16.60;;;1.20;99.90;;;;;;5121046;27;20056;-79
2024/01/02 07:30:58;;;;;;;44.72;16.58;;;1.10;99.90;;;;;;5105286;28;20040;-78
2024/01/02 07:33:27;;;;;;;43.35;16.50;;;1.20;99.90;;;;;;5103756;28;20138;-79
2024/01/02 07:35:57;;;;;;;48.20;16.38;;;1.20;99.90;;;;;;5105366;28;20062;-78
2024/01/02 07:38:26;;;;;;;44.53;15.60;;;1.20;99.90;;;;;;5104888;28;20071;-78
2024/01/02 07:40:54;;;;;;;53.78;16.73;;;1.50;99.90;;;;;;5121873;27;20067;-78
2024/01/02 07:43:24;;;;;;;46.63;17.58;;;1.50;99.90;;;;;;5102125;28;20081;-78
2024/01/02 07:45:53;;;;;;;45.97;18.70;;;1.40;99.90;;;;;;5116578;27;20135;-79
2024/01/02 07:48:21;;;;;;;50.13;17.73;;;1.40;99.90;;;;;;5109812;28;20056;-78
2024/01/02 07:50:50;;;;;;;48.67;19.30;;;1.40;99.90;;;;;;5109746;28;20166;-79
2024/01/02 07:53:20;;;;;;;54.13;19.85;;;1.50;99.90;;;;;;5109854;28;20387;-79
2024/01/02 07:55:49;;;;;;;54.65;20.58;;;1.50;99.90;;;;;;5100455;28;20059;-79
2024/01/02 07:58:18;;;;;;;59.25;20.25;;;1.60;99.90;;;;;;5103133;28;20054;-78
2024/01/02 08:00:46;;;;;;;61.78;21.13;;;1.60;99.90;;;;;;5101355;28;20133;-78
2024/01/02 08:03:15;;;;;;;47.28;19.42;;;1.60;99.90;;;;;;5092440;28;20051;-78
2024/01/02 08:05:44;;;;;;;45.20;18.08;;;1.70;99.90;;;;;;5091453;28;20052;-77
2024/01/02 08:08:12;;;;;;;61.30;24.58;;;1.70;99.90;;;;;;5106879;27;20056;-77
2024/01/02 08:10:42;;;;;;;62.88;24.63;;;1.80;99.90;;;;;;5089617;28;20771;-77
2024/01/02 08:13:11;;;;;;;64.25;28.98;;;1.70;99.90;;;;;;5073337;28;20052;-77
2024/01/02 08:15:39;;;;;;;79.32;32.45;;;1.80;99.90;;;;;;5075336;28;20044;-77
2024/01/02 08:18:09;;;;;;;67.82;29.63;;;1.90;99.90;;;;;;5074824;28;20048;-77
2024/01/02 08:20:39;;;;;;;54.17;23.95;;;1.90;99.90;;;;;;5077921;28;20048;-77
2024/01/02 08:23:08;;;;;;;47.88;21.92;;;2.50;99.90;;;;;;5072572;28;20072;-78
2024/01/02 08:25:36;;;;;;;44.13;20.80;;;2.00;99.90;;;;;;5076611;28;20054;-78
2024/01/02 08:28:07;;;;;;;44.10;21.58;;;1.90;99.90;;;;;;5087722;28;20056;-78
2024/01/02 08:30:36;;;;;;;71.75;30.55;;;2.00;99.90;;;;;;5076833;28;22506;-77
2024/01/02 08:33:05;;;;;;;42.97;20.17;;;2.00;99.90;;;;;;5080663;28;22426;-77
2024/01/02 08:35:34;;;;;;;32.33;14.40;;;2.00;99.90;;;;;;5080131;28;20054;-77
2024/01/02 08:38:03;;;;;;;26.33;12.55;;;2.10;99.90;;;;;;5081897;28;20780;-79
2024/01/02 08:40:35;;;;;;;20.58;9.77;;;2.10;99.90;;;;;;5089088;28;20052;-79
2024/01/02 08:43:06;;;;;;;19.60;8.93;;;2.30;99.90;;;;;;5101308;27;20111;-77
2024/01/02 08:45:38;;;;;;;18.75;9.07;;;2.40;99.90;;;;;;5029641;28;20516;-78
2024/01/02 08:48:10;;;;;;;20.42;9.27;;;2.40;99.90;;;;;;5085900;28;20044;-77
2024/01/02 08:50:41;;;;;;;;;;;2.50;99.90;;;;;;5080013;28;20040;-77
2024/01/02 08:53:12;;;;;;;21.27;9.52;;;2.60;99.90;;;;;;5078640;28;19934;-77
2024/01/02 08:55:41;;;;;;;22.05;10.50;;;2.60;99.90;;;;;;5096336;27;20039;-77
2024/01/02 08:58:12;;;;;;;31.58;14.15;;;2.60;99.90;;;;;;5078697;28;20051;-77
2024/01/02 09:00:40;;;;;;;32.03;12.90;;;2.60;99.90;;;;;;5082805;28;20051;-77
2024/01/02 09:03:09;;;;;;;30.23;13.82;;;2.50;99.90;;;;;;5082241;28;20064;-77
2024/01/02 09:05:38;;;;;;;30.65;12.25;;;2.50;99.90;;;;;;5090123;28;20052;-77
2024/01/02 09:08:08;;;;;;;24.48;11.20;;;2.60;99.90;;;;;;5081786;28;20181;-77
2024/01/02 09:10:37;;;;;;;24.30;11.38;;;2.80;99.90;;;;;;5078541;28;20044;-77
2024/01/02 09:13:05;;;;;;;36.10;14.27;;;2.80;99.90;;;;;;5080000;28;20071;-77
2024/01/02 09:15:36;;;;;;;25.50;12.00;;;2.90;99.90;;;;;;5078239;28;20612;-77
2024/01/02 09:18:08;;;;;;;37.92;14.52;;;3.00;99.90;;;;;;5077117;28;20146;-77
2024/01/02 09:20:37;;;;;;;27.10;12.45;;;3.10;99.90;;;;;;5078282;28;20048;-77
2024/01/02 09:23:06;;;;;;;26.02;12.60;;;3.20;99.90;;;;;;5081121;28;20040;-77
2024/01/02 09:25:39;;;;;;;29.70;12.20;;;3.20;99.90;;;;;;5078657;28;20067;-77
2024/01/02 09:28:12;;;;;;;25.23;10.93;;;3.30;99.90;;;;;;5078574;28;22490;-77
2024/01/02 09:30:47;;;;;;;24.33;10.10;;;3.30;99.90;;;;;;5074610;28;20047;-77
2024/01/02 09:33:17;;;;;;;31.27;14.77;;;3.30;99.90;;;;;;5077667;28;20052;-77
2024/01/02 09:35:46;;;;;;;29.77;13.52;;;3.40;99.90;;;;;;5072911;28;20060;-77
2024/01/02 09:38:15;;;;;;;26.92;12.38;;;3.50;99.90;;;;;;5078413;28;20532;-77
2024/01/02 09:41:11;;;;;;;23.70;11.85;;;3.60;99.90;;;;;;5082632;28;20039;-78
2024/01/02 09:43:54;;;;;;;24.90;12.18;;;3.60;99.90;;;;;;5073214;28;20051;-77
2024/01/02 09:46:33;;;;;;;24.88;10.93;;;3.70;99.90;;;;;;5075057;28;20051;-78
2024/01/02 09:49:18;;;;;;;23.10;9.45;;;3.80;99.90;;;;;;5083727;28;20161;-78
2024/01/02 09:51:56;;;;;;;22.00;10.40;;;3.80;99.90;;;;;;5071768;28;22522;-79
2024/01/02 09:54:38;;;;;;;26.52;13.48;;;3.80;99.90;;;;;;5071319;28;20066;-77
2024/01/02 09:57:15;;;;;;;28.03;14.00;;;3.80;99.90;;;;;;5075343;28;20126;-79
2024/01/02 09:59:55;;;;;;;22.02;10.63;;;3.90;99.90;;;;;;5074180;28;20299;-79
2024/01/02 10:02:50;;;;;;;26.38;10.38;;;3.90;99.90;;;;;;5078404;28;20047;-78
2024/01/02 10:05:32;;;;;;;22.10;11.27;;;3.90;99.90;;;;;;5062875;28;20051;-80
2024/01/02 10:08:13;;;;;;;24.98;11.45;;;4.00;99.90;;;;;;5089702;27;21021;-79
2024/01/02 10:10:50;;;;;;;18.67;9.40;;;4.00;99.90;;;;;;5070980;28;20156;-79
2024/01/02 10:13:24;;;;;;;18.50;9.30;;;4.00;99.90;;;;;;5095736;27;20138;-80
2024/01/02 10:16:04;;;;;;;18.10;8.60;;;4.10;99.90;;;;;;5075982;28;20060;-80
2024/01/02 10:18:52;;;;;;;17.92;8.05;;;4.10;99.90;;;;;;5078162;28;20036;-82
2024/01/02 10:21:30;;;;;;;16.77;7.03;;;4.10;99.90;;;;;;5073022;28;20544;-83
2024/01/02 10:24:24;;;;;;;13.93;7.03;;;4.10;99.90;;;;;;5086777;27;20497;-82
2024/01/02 10:27:07;;;;;;;16.17;6.88;;;4.20;99.90;;;;;;5071209;28;20051;-82
2024/01/02 10:29:46;;;;;;;21.83;7.85;;;4.20;99.90;;;;;;5088263;27;20620;-81
2024/01/02 10:32:24;;;;;;;16.17;8.32;;;4.20;99.90;;;;;;5071197;28;20058;-82
2024/01/02 10:35:05;;;;;;;15.52;8.43;;;4.30;99.90;;;;;;5059584;28;20056;-80
2024/01/02 10:37:42;;;;;;;13.57;7.95;;;4.30;99.90;;;;;;5082139;28;20144;-83
2024/01/02 10:40:23;;;;;;;16.27;8.30;;;4.40;99.90;;;;;;5070868;28;20122;-80
2024/01/02 10:43:06;;;;;;;15.25;6.80;;;4.40;99.90;;;;;;5075897;28;20498;-80
2024/01/02 10:45:44;;;;;;;14.05;7.15;;;4.40;99.90;;;;;;5035897;28;21006;-84
2024/01/02 10:48:29;;;;;;;12.45;6.85;;;4.50;99.90;;;;;;5074384;28;20784;-79
2024/01/02 10:51:08;;;;;;;16.95;7.70;;;4.50;99.90;;;;;;5073053;28;20048;-83
2024/01/02 10:53:49;;;;;;;14.80;7.28;;;4.60;99.90;;;;;;5039346;28;20063;-79
2024/01/02 10:56:33;;;;;;;15.43;7.50;;;4.60;99.90;;;;;;5012585;28;20100;-79
2024/01/02 10:59:11;;;;;;;15.27;7.93;;;4.70;99.90;;;;;;5036277;28;20112;-81
2024/01/02 11:01:47;;;;;;;12.77;7.03;;;4.70;99.90;;;;;;5003825;28;22577;-79
2024/01/02 11:04:24;;;;;;;13.32;5.90;;;4.70;99.90;;;;;;5038791;28;20052;-83
2024/01/02 11:06:57;;;;;;;13.15;6.05;;;4.80;99.90;;;;;;5001978;28;20203;-82
2024/01/02 11:09:32;;;;;;;14.85;6.15;;;4.80;99.90;;;;;;5016063;28;20241;-82
2024/01/02 11:12:02;;;;;;;13.82;7.00;;;4.80;99.90;;;;;;5000268;28;20053;-81
2024/01/02 11:14:44;;;;;;;15.23;7.70;;;5.00;99.90;;;;;;5017731;28;20045;-80
2024/01/02 11:17:15;;;;;;;12.32;6.20;;;5.00;99.90;;;;;;5026236;28;20065;-82
2024/01/02 11:19:52;;;;;;;13.18;6.40;;;5.00;99.90;;;;;;5002714;28;20053;-80
2024/01/02 11:22:29;;;;;;;15.10;7.00;;;5.10;99.90;;;;;;5018367;28;20084;-82
2024/01/02 11:25:04;;;;;;;12.30;6.53;;;5.30;99.90;;;;;;5013960;28;22764;-82
2024/01/02 11:27:34;;;;;;;13.02;6.32;;;5.50;99.90;;;;;;5017994;28;20068;-82
2024/01/02 11:30:05;;;;;;;16.55;9.15;;;5.60;99.90;;;;;;5008667;28;20053;-82
2024/01/02 11:32:42;;;;;;;13.03;6.90;;;5.70;99.90;;;;;;5047362;28;20165;-83
2024/01/02 11:35:13;;;;;;;13.18;6.25;;;5.80;99.90;;;;;;5050525;28;20048;-82
2024/01/02 11:37:53;;;;;;;13.45;7.60;;;5.80;99.90;;;;;;5062067;28;20497;-81
2024/01/02 11:40:26;;;;;;;12.88;6.25;;;5.90;99.90;;;;;;5076518;28;20915;-82
2024/01/02 11:43:00;;;;;;;13.63;5.82;;;5.90;99.90;;;;;;5073525;28;20064;-83
2024/01/02 11:45:33;;;;;;;13.48;6.07;;;5.80;99.90;;;;;;5073973;28;20087;-83
2024/01/02 11:48:16;;;;;;;12.30;6.38;;;5.90;99.90;;;;;;5075607;28;20421;-83
2024/01/02 11:50:52;;;;;;;15.45;7.25;;;6.00;99.90;;;;;;5073313;28;20176;-81
2024/01/02 11:53:43;;;;;;;11.05;5.65;;;6.10;99.90;;;;;;5078156;28;20038;-83
2024/01/02 11:56:13;;;;;;;10.40;5.68;;;6.10;99.90;;;;;;5093015;27;20055;-80
2024/01/02 11:58:49;;;;;;;10.00;5.45;;;6.20;99.90;;;;;;5071441;28;20425;-83
2024/01/02 12:01:30;;;;;;;9.98;5.10;;;6.20;99.90;;;;;;5073563;28;20075;-82
2024/01/02 12:04:10;;;;;;;13.50;6.40;;;6.30;99.90;;;;;;5072012;28;22543;-82
2024/01/02 12:06:52;;;;;;;8.70;4.40;;;6.30;99.90;;;;;;5071828;28;20505;-83
2024/01/02 12:09:27;;;;;;;10.43;5.68;;;6.40;99.90;;;;;;5075353;28;20040;-84
2024/01/02 12:12:08;;;;;;;11.45;5.22;;;6.60;99.90;;;;;;5071423;28;20051;-82
2024/01/02 12:14:46;;;;;;;9.07;5.28;;;6.40;99.90;;;;;;5073784;28;20040;-83
2024/01/02 12:17:18;;;;;;;11.05;5.72;;;6.50;99.90;;;;;;5092176;27;20268;-83
2024/01/02 12:20:01;;;;;;;9.00;4.03;;;6.40;99.90;;;;;;5075483;28;20046;-81
2024/01/02 12:22:32;;;;;;;10.75;4.47;;;6.50;99.90;;;;;;5073677;28;20056;-84
2024/01/02 12:25:04;;;;;;;8.45;3.83;;;6.50;99.90;;;;;;5088907;27;20079;-82
2024/01/02 12:27:38;;;;;;;7.53;4.30;;;6.50;99.90;;;;;;5086101;27;20056;-81
2024/01/02 12:30:08;;;;;;;7.10;4.28;;;6.50;99.90;;;;;;5088047;27;20189;-83
2024/01/02 12:32:51;;;;;;;9.70;4.00;;;6.50;99.90;;;;;;5075075;28;20051;-81
2024/01/02 12:35:27;;;;;;;10.25;5.00;;;6.50;99.90;;;;;;5077058;28;20044;-82
2024/01/02 12:38:08;;;;;;;9.38;4.65;;;6.50;99.90;;;;;;5074942;28;20071;-82
2024/01/02 12:40:43;;;;;;;9.23;4.57;;;6.60;99.90;;;;;;5074897;28;20059;-82
2024/01/02 12:43:14;;;;;;;9.05;4.47;;;6.50;99.90;;;;;;5088314;27;20048;-82
2024/01/02 12:45:46;;;;;;;8.07;3.80;;;6.50;99.90;;;;;;5084729;27;20051;-83
2024/01/02 12:48:19;;;;;;;9.18;4.20;;;6.60;99.90;;;;;;5072482;28;20052;-82
2024/01/02 12:50:51;;;;;;;7.93;3.65;;;6.60;99.90;;;;;;5088175;28;20064;-80
2024/01/02 12:53:24;;;;;;;7.25;4.07;;;6.60;99.90;;;;;;5073265;28;20051;-82
2024/01/02 12:55:56;;;;;;;7.25;3.50;;;6.60;99.90;;;;;;5090540;27;20831;-84
2024/01/02 12:58:31;;;;;;;6.85;3.10;;;6.60;99.90;;;;;;5075345;28;20126;-83
2024/01/02 13:01:00;;;;;;;7.40;2.60;;;6.60;99.90;;;;;;5081848;28;20124;-84
2024/01/02 13:03:29;;;;;;;4.65;2.53;;;6.60;99.90;;;;;;5074180;28;20201;-85
2024/01/02 13:05:58;;;;;;;6.20;3.40;;;6.60;99.90;;;;;;5077522;28;20071;-85
2024/01/02 13:08:28;;;;;;;7.03;3.28;;;6.60;99.90;;;;;;5090237;28;22513;-82
2024/01/02 13:10:57;;;;;;;6.72;3.00;;;6.60;99.90;;;;;;5071491;28;20134;-80
2024/01/02 13:13:27;;;;;;;5.70;2.90;;;6.50;99.90;;;;;;5088799;27;20044;-81
2024/01/02 13:16:01;;;;;;;8.25;3.50;;;6.50;99.90;;;;;;5086605;27;20574;-84
2024/01/02 13:18:30;;;;;;;5.53;2.75;;;6.50;99.90;;;;;;5075514;28;20056;-82
2024/01/02 13:21:01;;;;;;;6.03;3.40;;;6.60;99.90;;;;;;5078624;28;20059;-81
2024/01/02 13:23:31;;;;;;;6.47;2.88;;;6.50;99.90;;;;;;5089423;27;20055;-82
2024/01/02 13:26:01;;;;;;;5.53;1.95;;;6.50;99.90;;;;;;5079716;28;20070;-86
2024/01/02 13:28:30;;;;;;;6.70;2.35;;;6.50;99.90;;;;;;5073967;28;20067;-83
2024/01/02 13:31:01;;;;;;;5.60;2.08;;;6.50;99.90;;;;;;5075662;28;20168;-82
2024/01/02 13:33:40;;;;;;;4.70;1.08;;;6.50;99.90;;;;;;5072713;28;20506;-84
2024/01/02 13:36:09;;;;;;;2.88;1.05;;;6.40;99.90;;;;;;5072981;28;20528;-82
2024/01/02 13:38:44;;;;;;;2.38;0.93;;;6.40;99.90;;;;;;5078075;28;20047;-80
2024/01/02 13:41:15;;;;;;;3.85;0.80;;;6.50;99.90;;;;;;5069972;28;20063;-83
2024/01/02 13:43:44;;;;;;;3.13;0.98;;;6.40;99.90;;;;;;5086779;27;20082;-81
2024/01/02 13:46:14;;;;;;;2.42;0.85;;;6.30;99.90;;;;;;5086599;27;20186;-82
2024/01/02 13:48:53;;;;;;;3.72;1.02;;;6.30;99.90;;;;;;5076116;28;20151;-83
2024/01/02 13:51:23;;;;;;;4.80;1.23;;;6.30;99.90;;;;;;5072110;28;22478;-83
2024/01/02 13:53:57;;;;;;;4.70;1.77;;;6.30;99.90;;;;;;5074487;28;20166;-84